Eko 4 — SVAR8 — position and weather

sailwx.info

Track history (hours):
 
Tides and Currents Weather Stations Pressure Air Temp Water Temp Dewpoint Dewpoint Depression Visibility Wind Speed Wind Dir Waves Ship Positions

Eko 4

Last reported at 2018-Jun-20 23:12 UTC. Time now 2018-Jun-23 09:51 UTC.
Position N 37°11' E 025°49'.

Length 88 m; draft 5.4 m.

Type: Ship (hazmat cat A). MMSI: 240912000.

Date/timePositionNaut miles runAvg speedWind from/ knotsBaromVisibWave heightAir tempDewpointWater temp
2018-Jun-20 23:12N 37°11' E 025°49'2 8.8
2018-Jun-20 23:00N 37°12' E 025°47'4 8.8
2018-Jun-20 22:30N 37°13' E 025°41'9 9.0
2018-Jun-20 21:30N 37°15' E 025°31'4 8.5
2018-Jun-20 21:00N 37°16' E 025°25'4 8.6
2018-Jun-20 20:30N 37°17' E 025°20'4 8.4
2018-Jun-20 20:00N 37°18' E 025°15'4 8.3
2018-Jun-20 19:30N 37°18' E 025°10'5 8.2
2018-Jun-20 18:57N 37°19' E 025°04'4 8.3
2018-Jun-20 18:30N 37°19' E 024°59'4 8.5
2018-Jun-20 18:00N 37°19' E 024°54'4 8.2
2018-Jun-20 17:30N 37°21' E 024°49'4 8.7
2018-Jun-20 17:00N 37°23' E 024°44'46 8.0
2018-Jun-20 11:13N 37°38' E 023°49'2 8.1
2018-Jun-20 10:57N 37°38' E 023°47'4 8.1
2018-Jun-20 10:30N 37°40' E 023°42'5 9.0
2018-Jun-20 10:00N 37°44' E 023°40'5 9.1
2018-Jun-20 09:30N 37°48' E 023°37'5 9.0
2018-Jun-20 09:00N 37°52' E 023°36'4 8.9
2018-Jun-20 08:30N 37°57' E 023°36'4 7.1
2018-Jun-20 07:58N 37°60' E 023°33'2 3.1
2018-Jun-20 07:29N 38°01' E 023°32'0 0.0
2018-Jun-20 06:59N 38°01' E 023°32'0 0.0
2018-Jun-20 06:29N 38°01' E 023°32'0 0.0
2018-Jun-20 05:59N 38°01' E 023°32'0 0.0
2018-Jun-20 05:29N 38°01' E 023°32'0 0.0
2018-Jun-20 04:59N 38°01' E 023°32'0 0.0
2018-Jun-20 04:29N 38°01' E 023°32'0 0.0
2018-Jun-20 03:59N 38°01' E 023°32'0 0.0
2018-Jun-20 03:29N 38°01' E 023°32'0 0.0
2018-Jun-20 02:59N 38°01' E 023°32'0 0.0
2018-Jun-20 02:30N 38°01' E 023°32'0 0.0
2018-Jun-20 02:00N 38°01' E 023°32'0 0.0
2018-Jun-20 01:31N 38°01' E 023°32'0 0.0
2018-Jun-20 01:00N 38°01' E 023°32'0 0.0
2018-Jun-20 00:30N 38°01' E 023°32'0 0.0
2018-Jun-20 00:00N 38°01' E 023°32'0 0.0
2018-Jun-19 23:30N 38°01' E 023°32'0 0.0
2018-Jun-19 23:00N 38°01' E 023°32'0 0.0
2018-Jun-19 22:31N 38°01' E 023°32'0 0.0
2018-Jun-19 22:00N 38°01' E 023°32'0 0.0
2018-Jun-19 21:31N 38°01' E 023°32'0 0.0
2018-Jun-19 21:00N 38°01' E 023°32'0 0.0
2018-Jun-19 20:30N 38°01' E 023°32'0 0.0
2018-Jun-19 20:00N 38°01' E 023°32'0 0.1
2018-Jun-19 19:30N 38°01' E 023°32'2 5.0
2018-Jun-19 19:00N 38°02' E 023°35'0 0.0
2018-Jun-19 04:38N 38°02' E 023°36'0 3.1
2018-Jun-19 04:30N 38°01' E 023°35'0 0.7
2018-Jun-19 03:57N 38°01' E 023°35'0 0.1
2018-Jun-19 03:30N 38°01' E 023°35'2 4.4
2018-Jun-19 03:01N 38°01' E 023°32'2 0.1
2018-Jun-18 13:57N 38°02' E 023°30'1 2.6
2018-Jun-18 13:30N 38°01' E 023°31'1 1.4
2018-Jun-18 12:59N 38°02' E 023°32'0 0.2
2018-Jun-18 12:29N 38°02' E 023°32'0 0.0
2018-Jun-18 11:59N 38°02' E 023°32'0 0.0
2018-Jun-18 11:29N 38°02' E 023°32'0 0.1
2018-Jun-18 10:59N 38°02' E 023°32'0 0.1
2018-Jun-18 10:29N 38°02' E 023°32'0 0.1
2018-Jun-18 09:59N 38°02' E 023°32'0 0.0
2018-Jun-18 09:29N 38°02' E 023°32'0 0.1
2018-Jun-18 08:56N 38°02' E 023°32'0 0.0
2018-Jun-18 08:29N 38°02' E 023°32'0 0.0
2018-Jun-18 07:59N 38°02' E 023°32'0 0.0
2018-Jun-18 07:29N 38°02' E 023°32'0 0.0
2018-Jun-18 06:59N 38°02' E 023°32'0 0.0
2018-Jun-18 06:29N 38°02' E 023°32'0 0.1
2018-Jun-18 05:59N 38°02' E 023°32'0 0.1
2018-Jun-18 05:29N 38°01' E 023°32'0 0.0
2018-Jun-18 04:59N 38°01' E 023°32'0 0.0
2018-Jun-18 04:29N 38°01' E 023°32'0 0.0
2018-Jun-18 03:59N 38°01' E 023°32'0 0.0
2018-Jun-18 03:29N 38°01' E 023°32'0 0.0
2018-Jun-18 02:59N 38°01' E 023°32'0 0.0
2018-Jun-18 02:29N 38°01' E 023°32'0 0.1
2018-Jun-18 01:56N 38°01' E 023°32'0 0.0
2018-Jun-18 01:29N 38°01' E 023°32'0 0.0
2018-Jun-18 00:59N 38°01' E 023°32'0 0.0
2018-Jun-18 00:29N 38°01' E 023°32'0 0.0
2018-Jun-17 23:59N 38°01' E 023°32'0 0.0
2018-Jun-17 23:29N 38°01' E 023°32'0 0.0
2018-Jun-17 22:59N 38°01' E 023°32'0 0.0
2018-Jun-17 22:29N 38°01' E 023°32'0 0.0
2018-Jun-17 21:59N 38°01' E 023°32'0 0.0
2018-Jun-17 21:29N 38°01' E 023°32'0 0.0
2018-Jun-17 20:59N 38°01' E 023°32'0 0.0
2018-Jun-17 20:29N 38°01' E 023°32'0 0.0
2018-Jun-17 19:59N 38°01' E 023°32'0 0.0
2018-Jun-17 19:29N 38°01' E 023°32'0 0.0
2018-Jun-17 18:59N 38°01' E 023°32'0 0.0
2018-Jun-17 18:29N 38°01' E 023°32'0 0.0
2018-Jun-17 17:59N 38°01' E 023°32'0 0.0
2018-Jun-17 17:29N 38°01' E 023°32'0 0.0
2018-Jun-17 16:59N 38°01' E 023°32'0 0.0
2018-Jun-17 16:29N 38°01' E 023°32'0 0.0
2018-Jun-17 15:59N 38°01' E 023°32'0 0.0
2018-Jun-17 15:26N 38°01' E 023°32'0 0.0
2018-Jun-17 14:59N 38°01' E 023°32'0 0.0
2018-Jun-17 14:29N 38°01' E 023°32'0 0.0
2018-Jun-17 13:59N 38°01' E 023°32'0 0.1
2018-Jun-17 13:29N 38°01' E 023°32'0 0.1
2018-Jun-17 12:59N 38°02' E 023°32'0 0.2
2018-Jun-17 12:29N 38°01' E 023°32'0 0.1
2018-Jun-17 11:59N 38°02' E 023°32'0 0.1
2018-Jun-17 11:29N 38°02' E 023°32'0 0.0
2018-Jun-17 10:59N 38°02' E 023°32'0 0.0
2018-Jun-17 10:29N 38°02' E 023°32'0 0.1
2018-Jun-17 09:59N 38°02' E 023°32'0 0.0
2018-Jun-17 09:29N 38°02' E 023°32'0 0.1
2018-Jun-17 08:59N 38°02' E 023°32'0 0.0
2018-Jun-17 08:29N 38°02' E 023°32'0 0.0
2018-Jun-17 07:59N 38°02' E 023°32'0 0.0
2018-Jun-17 07:29N 38°02' E 023°32'0 0.1
2018-Jun-17 06:59N 38°02' E 023°32'0 0.1
2018-Jun-17 06:26N 38°01' E 023°32'0 0.0
2018-Jun-17 05:59N 38°01' E 023°32'0 0.0
2018-Jun-17 05:29N 38°01' E 023°32'0 0.0
2018-Jun-17 04:59N 38°01' E 023°32'0 0.0
2018-Jun-17 04:29N 38°01' E 023°32'0 0.0
2018-Jun-17 03:59N 38°01' E 023°32'0 0.0
2018-Jun-17 03:29N 38°01' E 023°32'0 0.0
2018-Jun-17 02:59N 38°01' E 023°32'0 0.0
2018-Jun-17 02:29N 38°01' E 023°32'0 0.0
2018-Jun-17 01:59N 38°01' E 023°32'0 0.0
2018-Jun-17 01:29N 38°01' E 023°32'0 0.0
2018-Jun-17 00:59N 38°01' E 023°32'0 0.0
2018-Jun-17 00:26N 38°01' E 023°32'0 0.0
2018-Jun-16 23:59N 38°01' E 023°32'0 0.0
2018-Jun-16 23:29N 38°01' E 023°32'0 0.0
2018-Jun-16 22:59N 38°01' E 023°32'0 0.0
2018-Jun-16 22:29N 38°01' E 023°32'0 0.0
2018-Jun-16 21:59N 38°01' E 023°32'0 0.0
2018-Jun-16 21:29N 38°01' E 023°32'0 0.0
2018-Jun-16 20:59N 38°01' E 023°32'0 0.0
2018-Jun-16 20:29N 38°01' E 023°32'0 0.0
2018-Jun-16 19:59N 38°01' E 023°32'0 0.0
2018-Jun-16 19:26N 38°01' E 023°32'0 0.0
2018-Jun-16 18:59N 38°01' E 023°32'0 0.0
2018-Jun-16 18:29N 38°01' E 023°32'0 0.0
2018-Jun-16 17:59N 38°01' E 023°32'0 0.0
2018-Jun-16 17:29N 38°01' E 023°32'0 0.0
2018-Jun-16 17:00N 38°01' E 023°32'0 0.0
2018-Jun-16 16:29N 38°01' E 023°32'0 0.1
2018-Jun-16 15:59N 38°01' E 023°32'1 1.6
2018-Jun-16 15:30N 38°01' E 023°33'4 7.8
2018-Jun-16 15:00N 37°57' E 023°34'3 5.3
2018-Jun-16 14:30N 37°55' E 023°35'3 5.7
2018-Jun-16 14:00N 37°53' E 023°38'5 9.5
2018-Jun-16 13:30N 37°48' E 023°41'5 9.4
2018-Jun-16 12:59N 37°44' E 023°43'5 9.4
2018-Jun-16 12:30N 37°40' E 023°46'46 1.0
2018-Jun-14 12:28N 37°03' E 024°21'52 8.3
2018-Jun-14 06:11N 37°44' E 023°40'2 9.3
2018-Jun-14 06:00N 37°45' E 023°39'4 9.0
2018-Jun-14 05:30N 37°49' E 023°37'5 8.6
2018-Jun-14 04:59N 37°50' E 023°31'4 8.9
2018-Jun-14 04:30N 37°50' E 023°26'5 9.2
2018-Jun-14 04:00N 37°51' E 023°20'5 9.4
2018-Jun-14 03:30N 37°52' E 023°14'5 9.4
2018-Jun-14 03:00N 37°53' E 023°08'3 5.8
2018-Jun-14 02:30N 37°55' E 023°05'0 0.2
2018-Jun-14 01:59N 37°55' E 023°05'0 0.0
2018-Jun-14 01:29N 37°55' E 023°05'0 0.0
2018-Jun-14 00:59N 37°55' E 023°05'0 0.0
2018-Jun-14 00:29N 37°55' E 023°05'0 0.0
2018-Jun-13 23:59N 37°55' E 023°05'0 0.0
2018-Jun-13 23:29N 37°55' E 023°05'0 0.0
2018-Jun-13 22:59N 37°55' E 023°05'0 0.0
2018-Jun-13 22:29N 37°55' E 023°05'0 0.0
2018-Jun-13 21:59N 37°55' E 023°05'0 0.0
2018-Jun-13 21:29N 37°55' E 023°05'0 0.0
2018-Jun-13 20:59N 37°55' E 023°05'0 0.0
2018-Jun-13 20:29N 37°55' E 023°05'0 0.0
2018-Jun-13 19:59N 37°55' E 023°05'0 0.0
2018-Jun-13 19:29N 37°55' E 023°05'0 0.0
2018-Jun-13 18:59N 37°55' E 023°05'0 0.0
2018-Jun-13 18:29N 37°55' E 023°05'0 0.0
2018-Jun-13 17:59N 37°55' E 023°05'0 0.0
2018-Jun-13 17:29N 37°55' E 023°05'0 0.0
2018-Jun-13 16:59N 37°55' E 023°05'0 0.0
2018-Jun-13 16:29N 37°55' E 023°05'0 0.0
2018-Jun-13 15:59N 37°55' E 023°05'0 0.0
2018-Jun-13 15:29N 37°55' E 023°05'0 0.0
2018-Jun-13 14:59N 37°55' E 023°05'0 0.0
2018-Jun-13 14:29N 37°55' E 023°05'0 0.0
2018-Jun-13 13:59N 37°55' E 023°05'0 0.0
2018-Jun-13 13:29N 37°55' E 023°05'0 0.0
2018-Jun-13 12:59N 37°55' E 023°05'0 0.0
2018-Jun-13 12:29N 37°55' E 023°05'0 0.0
2018-Jun-13 11:59N 37°55' E 023°05'0 0.0
2018-Jun-13 11:29N 37°55' E 023°05'0 0.0
2018-Jun-13 10:59N 37°55' E 023°05'0 0.0
2018-Jun-13 10:29N 37°55' E 023°05'0 0.0
2018-Jun-13 09:59N 37°55' E 023°05'0 0.0
2018-Jun-13 09:29N 37°55' E 023°05'0 0.0
2018-Jun-13 08:59N 37°55' E 023°05'0 0.0
2018-Jun-13 08:29N 37°55' E 023°05'0 0.0
2018-Jun-13 07:59N 37°55' E 023°05'0 0.0
2018-Jun-13 07:29N 37°55' E 023°05'0 0.0
2018-Jun-13 06:59N 37°55' E 023°05'0 0.0
2018-Jun-13 06:29N 37°55' E 023°05'0 0.0
2018-Jun-13 05:59N 37°55' E 023°05'0 0.0
2018-Jun-13 05:29N 37°55' E 023°05'0 0.0
2018-Jun-13 04:59N 37°55' E 023°05'0 0.0
2018-Jun-13 04:29N 37°55' E 023°05'0 0.0
2018-Jun-13 03:59N 37°55' E 023°05'0 0.0
2018-Jun-13 03:29N 37°55' E 023°05'0 0.0
2018-Jun-13 02:59N 37°55' E 023°05'0 0.0
2018-Jun-13 02:29N 37°55' E 023°05'0 0.0
2018-Jun-13 01:59N 37°55' E 023°05'0 0.0
2018-Jun-13 01:29N 37°55' E 023°05'0 0.0
2018-Jun-13 00:59N 37°55' E 023°05'0 0.0
2018-Jun-13 00:29N 37°55' E 023°05'0 0.0
2018-Jun-12 23:59N 37°55' E 023°05'0 0.3
2018-Jun-12 23:30N 37°55' E 023°05'1 1.8
2018-Jun-12 23:00N 37°55' E 023°07'0 0.0
2018-Jun-12 22:30N 37°55' E 023°07'0 0.0
2018-Jun-12 22:00N 37°55' E 023°07'0 0.0
2018-Jun-12 21:30N 37°55' E 023°07'0 0.3
2018-Jun-12 21:00N 37°55' E 023°07'3 5.5
2018-Jun-12 20:30N 37°53' E 023°10'4 8.8
2018-Jun-12 20:00N 37°53' E 023°15'5 9.2
2018-Jun-12 19:30N 37°51' E 023°21'4 8.8
2018-Jun-12 19:00N 37°50' E 023°26'4 8.4
2018-Jun-12 18:30N 37°50' E 023°32'4 8.3
2018-Jun-12 18:00N 37°54' E 023°35'3 6.6
2018-Jun-12 17:30N 37°57' E 023°36'3 7.0
2018-Jun-12 17:00N 37°60' E 023°33'2 3.4
2018-Jun-12 16:30N 38°01' E 023°32'0 0.0
2018-Jun-12 16:00N 38°01' E 023°32'0 0.0
2018-Jun-12 15:30N 38°01' E 023°32'0 0.0
2018-Jun-12 15:00N 38°01' E 023°32'0 0.0
2018-Jun-12 14:30N 38°01' E 023°32'0 0.0
2018-Jun-12 14:00N 38°01' E 023°32'0 0.0
2018-Jun-12 13:30N 38°01' E 023°32'0 0.0
2018-Jun-12 13:00N 38°01' E 023°32'0 0.2
2018-Jun-12 12:30N 38°01' E 023°32'0 0.1
2018-Jun-12 12:00N 38°01' E 023°32'0 0.1
2018-Jun-12 11:30N 38°01' E 023°32'0 0.0
2018-Jun-12 11:00N 38°01' E 023°32'0 0.0
2018-Jun-12 10:30N 38°01' E 023°32'0 0.0
2018-Jun-12 10:00N 38°01' E 023°32'0 0.0
2018-Jun-12 09:30N 38°01' E 023°32'0 0.0
2018-Jun-12 09:00N 38°01' E 023°32'0 0.0
2018-Jun-12 08:30N 38°01' E 023°32'0 0.0
2018-Jun-12 08:00N 38°01' E 023°32'0 0.0
2018-Jun-12 07:27N 38°01' E 023°32'0 0.0
2018-Jun-12 07:00N 38°01' E 023°32'0 0.0
2018-Jun-12 06:30N 38°01' E 023°32'0 0.0
2018-Jun-12 06:00N 38°01' E 023°32'0 0.0
2018-Jun-12 05:30N 38°01' E 023°32'0 0.0
2018-Jun-12 05:00N 38°01' E 023°32'0 0.0
2018-Jun-12 04:30N 38°01' E 023°32'0 0.1
2018-Jun-12 04:00N 38°01' E 023°32'0 0.0
2018-Jun-12 03:30N 38°01' E 023°32'0 0.0
2018-Jun-12 03:00N 38°01' E 023°32'0 0.0
2018-Jun-12 02:30N 38°01' E 023°32'0 0.0
2018-Jun-12 02:00N 38°01' E 023°32'0 0.0
2018-Jun-12 01:30N 38°01' E 023°32'0 0.0
2018-Jun-12 01:00N 38°01' E 023°32'0 0.0
2018-Jun-12 00:30N 38°01' E 023°32'0 0.0
2018-Jun-12 00:00N 38°01' E 023°32'0 0.0
2018-Jun-11 23:30N 38°01' E 023°32'0 0.0
2018-Jun-11 23:00N 38°01' E 023°32'0 0.0
2018-Jun-11 22:30N 38°01' E 023°32'0 0.0
2018-Jun-11 22:00N 38°01' E 023°32'0 0.0
2018-Jun-11 21:30N 38°01' E 023°32'0 0.0
2018-Jun-11 21:00N 38°01' E 023°32'0 0.0
2018-Jun-11 20:30N 38°01' E 023°32'0 0.0
2018-Jun-11 20:00N 38°01' E 023°32'0 0.0
2018-Jun-11 19:30N 38°01' E 023°32'0 0.0
2018-Jun-11 19:00N 38°01' E 023°32'0 0.0
2018-Jun-11 18:30N 38°01' E 023°32'0 0.0
2018-Jun-11 18:00N 38°01' E 023°32'0 0.1
2018-Jun-11 17:30N 38°01' E 023°32'0 0.0
2018-Jun-11 17:00N 38°01' E 023°32'0 0.0
2018-Jun-11 16:30N 38°01' E 023°32'0 0.1
2018-Jun-11 16:00N 38°01' E 023°32'0 0.0
2018-Jun-11 15:30N 38°01' E 023°32'0 0.0
2018-Jun-11 15:00N 38°01' E 023°32'0 0.0
2018-Jun-11 14:30N 38°01' E 023°32'0 0.0
2018-Jun-11 14:00N 38°01' E 023°32'0 0.0
2018-Jun-11 13:30N 38°01' E 023°32'0 0.0
2018-Jun-11 13:00N 38°01' E 023°32'0 0.0
2018-Jun-11 12:27N 38°01' E 023°32'0 0.1
2018-Jun-11 12:00N 38°01' E 023°32'0 0.1
2018-Jun-11 11:30N 38°01' E 023°32'0 0.8
2018-Jun-11 10:59N 38°01' E 023°32'1 2.0
2018-Jun-11 10:31N 38°02' E 023°32'3 5.5
2018-Jun-11 10:00N 37°59' E 023°33'3 6.7
2018-Jun-11 09:30N 37°57' E 023°36'3 6.6
2018-Jun-11 09:00N 37°54' E 023°38'4 8.1
2018-Jun-11 08:30N 37°50' E 023°40'4 8.0
2018-Jun-11 08:00N 37°46' E 023°42'4 8.2
2018-Jun-11 07:30N 37°43' E 023°44'  
Track history (hours):
 
Tides and Currents Weather Stations Pressure Air Temp Water Temp Dewpoint Dewpoint Depression Visibility Wind Speed Wind Dir Waves Ship Positions

Eko 4

Last reported at 2018-Jun-20 23:12 UTC. Time now 2018-Jun-23 09:51 UTC.
Position N 37°11' E 025°49'.

Length 88 m; draft 5.4 m.

Type: Ship (hazmat cat A). MMSI: 240912000.

Date/timePositionNaut miles runAvg speedWind from/ knotsBaromVisibWave heightAir tempDewpointWater temp
2018-Jun-20 23:12N 37°11' E 025°49'2 8.8
2018-Jun-20 23:00N 37°12' E 025°47'4 8.8
2018-Jun-20 22:30N 37°13' E 025°41'9 9.0
2018-Jun-20 21:30N 37°15' E 025°31'4 8.5
2018-Jun-20 21:00N 37°16' E 025°25'4 8.6
2018-Jun-20 20:30N 37°17' E 025°20'4 8.4
2018-Jun-20 20:00N 37°18' E 025°15'4 8.3
2018-Jun-20 19:30N 37°18' E 025°10'5 8.2
2018-Jun-20 18:57N 37°19' E 025°04'4 8.3
2018-Jun-20 18:30N 37°19' E 024°59'4 8.5
2018-Jun-20 18:00N 37°19' E 024°54'4 8.2
2018-Jun-20 17:30N 37°21' E 024°49'4 8.7
2018-Jun-20 17:00N 37°23' E 024°44'46 8.0
2018-Jun-20 11:13N 37°38' E 023°49'2 8.1
2018-Jun-20 10:57N 37°38' E 023°47'4 8.1
2018-Jun-20 10:30N 37°40' E 023°42'5 9.0
2018-Jun-20 10:00N 37°44' E 023°40'5 9.1
2018-Jun-20 09:30N 37°48' E 023°37'5 9.0
2018-Jun-20 09:00N 37°52' E 023°36'4 8.9
2018-Jun-20 08:30N 37°57' E 023°36'4 7.1
2018-Jun-20 07:58N 37°60' E 023°33'2 3.1
2018-Jun-20 07:29N 38°01' E 023°32'0 0.0
2018-Jun-20 06:59N 38°01' E 023°32'0 0.0
2018-Jun-20 06:29N 38°01' E 023°32'0 0.0
2018-Jun-20 05:59N 38°01' E 023°32'0 0.0
2018-Jun-20 05:29N 38°01' E 023°32'0 0.0
2018-Jun-20 04:59N 38°01' E 023°32'0 0.0
2018-Jun-20 04:29N 38°01' E 023°32'0 0.0
2018-Jun-20 03:59N 38°01' E 023°32'0 0.0
2018-Jun-20 03:29N 38°01' E 023°32'0 0.0
2018-Jun-20 02:59N 38°01' E 023°32'0 0.0
2018-Jun-20 02:30N 38°01' E 023°32'0 0.0
2018-Jun-20 02:00N 38°01' E 023°32'0 0.0
2018-Jun-20 01:31N 38°01' E 023°32'0 0.0
2018-Jun-20 01:00N 38°01' E 023°32'0 0.0
2018-Jun-20 00:30N 38°01' E 023°32'0 0.0
2018-Jun-20 00:00N 38°01' E 023°32'0 0.0
2018-Jun-19 23:30N 38°01' E 023°32'0 0.0
2018-Jun-19 23:00N 38°01' E 023°32'0 0.0
2018-Jun-19 22:31N 38°01' E 023°32'0 0.0
2018-Jun-19 22:00N 38°01' E 023°32'0 0.0
2018-Jun-19 21:31N 38°01' E 023°32'0 0.0
2018-Jun-19 21:00N 38°01' E 023°32'0 0.0
2018-Jun-19 20:30N 38°01' E 023°32'0 0.0
2018-Jun-19 20:00N 38°01' E 023°32'0 0.1
2018-Jun-19 19:30N 38°01' E 023°32'2 5.0
2018-Jun-19 19:00N 38°02' E 023°35'0 0.0
2018-Jun-19 04:38N 38°02' E 023°36'0 3.1
2018-Jun-19 04:30N 38°01' E 023°35'0 0.7
2018-Jun-19 03:57N 38°01' E 023°35'0 0.1
2018-Jun-19 03:30N 38°01' E 023°35'2 4.4
2018-Jun-19 03:01N 38°01' E 023°32'2 0.1
2018-Jun-18 13:57N 38°02' E 023°30'1 2.6
2018-Jun-18 13:30N 38°01' E 023°31'1 1.4
2018-Jun-18 12:59N 38°02' E 023°32'0 0.2
2018-Jun-18 12:29N 38°02' E 023°32'0 0.0
2018-Jun-18 11:59N 38°02' E 023°32'0 0.0
2018-Jun-18 11:29N 38°02' E 023°32'0 0.1
2018-Jun-18 10:59N 38°02' E 023°32'0 0.1
2018-Jun-18 10:29N 38°02' E 023°32'0 0.1
2018-Jun-18 09:59N 38°02' E 023°32'0 0.0
2018-Jun-18 09:29N 38°02' E 023°32'0 0.1
2018-Jun-18 08:56N 38°02' E 023°32'0 0.0
2018-Jun-18 08:29N 38°02' E 023°32'0 0.0
2018-Jun-18 07:59N 38°02' E 023°32'0 0.0
2018-Jun-18 07:29N 38°02' E 023°32'0 0.0
2018-Jun-18 06:59N 38°02' E 023°32'0 0.0
2018-Jun-18 06:29N 38°02' E 023°32'0 0.1
2018-Jun-18 05:59N 38°02' E 023°32'0 0.1
2018-Jun-18 05:29N 38°01' E 023°32'0 0.0
2018-Jun-18 04:59N 38°01' E 023°32'0 0.0
2018-Jun-18 04:29N 38°01' E 023°32'0 0.0
2018-Jun-18 03:59N 38°01' E 023°32'0 0.0
2018-Jun-18 03:29N 38°01' E 023°32'0 0.0
2018-Jun-18 02:59N 38°01' E 023°32'0 0.0
2018-Jun-18 02:29N 38°01' E 023°32'0 0.1
2018-Jun-18 01:56N 38°01' E 023°32'0 0.0
2018-Jun-18 01:29N 38°01' E 023°32'0 0.0
2018-Jun-18 00:59N 38°01' E 023°32'0 0.0
2018-Jun-18 00:29N 38°01' E 023°32'0 0.0
2018-Jun-17 23:59N 38°01' E 023°32'0 0.0
2018-Jun-17 23:29N 38°01' E 023°32'0 0.0
2018-Jun-17 22:59N 38°01' E 023°32'0 0.0
2018-Jun-17 22:29N 38°01' E 023°32'0 0.0
2018-Jun-17 21:59N 38°01' E 023°32'0 0.0
2018-Jun-17 21:29N 38°01' E 023°32'0 0.0
2018-Jun-17 20:59N 38°01' E 023°32'0 0.0
2018-Jun-17 20:29N 38°01' E 023°32'0 0.0
2018-Jun-17 19:59N 38°01' E 023°32'0 0.0
2018-Jun-17 19:29N 38°01' E 023°32'0 0.0
2018-Jun-17 18:59N 38°01' E 023°32'0 0.0
2018-Jun-17 18:29N 38°01' E 023°32'0 0.0
2018-Jun-17 17:59N 38°01' E 023°32'0 0.0
2018-Jun-17 17:29N 38°01' E 023°32'0 0.0
2018-Jun-17 16:59N 38°01' E 023°32'0 0.0
2018-Jun-17 16:29N 38°01' E 023°32'0 0.0
2018-Jun-17 15:59N 38°01' E 023°32'0 0.0
2018-Jun-17 15:26N 38°01' E 023°32'0 0.0
2018-Jun-17 14:59N 38°01' E 023°32'0 0.0
2018-Jun-17 14:29N 38°01' E 023°32'0 0.0
2018-Jun-17 13:59N 38°01' E 023°32'0 0.1
2018-Jun-17 13:29N 38°01' E 023°32'0 0.1
2018-Jun-17 12:59N 38°02' E 023°32'0 0.2
2018-Jun-17 12:29N 38°01' E 023°32'0 0.1
2018-Jun-17 11:59N 38°02' E 023°32'0 0.1
2018-Jun-17 11:29N 38°02' E 023°32'0 0.0
2018-Jun-17 10:59N 38°02' E 023°32'0 0.0
2018-Jun-17 10:29N 38°02' E 023°32'0 0.1
2018-Jun-17 09:59N 38°02' E 023°32'0 0.0
2018-Jun-17 09:29N 38°02' E 023°32'0 0.1
2018-Jun-17 08:59N 38°02' E 023°32'0 0.0
2018-Jun-17 08:29N 38°02' E 023°32'0 0.0
2018-Jun-17 07:59N 38°02' E 023°32'0 0.0
2018-Jun-17 07:29N 38°02' E 023°32'0 0.1
2018-Jun-17 06:59N 38°02' E 023°32'0 0.1
2018-Jun-17 06:26N 38°01' E 023°32'0 0.0
2018-Jun-17 05:59N 38°01' E 023°32'0 0.0
2018-Jun-17 05:29N 38°01' E 023°32'0 0.0
2018-Jun-17 04:59N 38°01' E 023°32'0 0.0
2018-Jun-17 04:29N 38°01' E 023°32'0 0.0
2018-Jun-17 03:59N 38°01' E 023°32'0 0.0
2018-Jun-17 03:29N 38°01' E 023°32'0 0.0
2018-Jun-17 02:59N 38°01' E 023°32'0 0.0
2018-Jun-17 02:29N 38°01' E 023°32'0 0.0
2018-Jun-17 01:59N 38°01' E 023°32'0 0.0
2018-Jun-17 01:29N 38°01' E 023°32'0 0.0
2018-Jun-17 00:59N 38°01' E 023°32'0 0.0
2018-Jun-17 00:26N 38°01' E 023°32'0 0.0
2018-Jun-16 23:59N 38°01' E 023°32'0 0.0
2018-Jun-16 23:29N 38°01' E 023°32'0 0.0
2018-Jun-16 22:59N 38°01' E 023°32'0 0.0
2018-Jun-16 22:29N 38°01' E 023°32'0 0.0
2018-Jun-16 21:59N 38°01' E 023°32'0 0.0
2018-Jun-16 21:29N 38°01' E 023°32'0 0.0
2018-Jun-16 20:59N 38°01' E 023°32'0 0.0
2018-Jun-16 20:29N 38°01' E 023°32'0 0.0
2018-Jun-16 19:59N 38°01' E 023°32'0 0.0
2018-Jun-16 19:26N 38°01' E 023°32'0 0.0
2018-Jun-16 18:59N 38°01' E 023°32'0 0.0
2018-Jun-16 18:29N 38°01' E 023°32'0 0.0
2018-Jun-16 17:59N 38°01' E 023°32'0 0.0
2018-Jun-16 17:29N 38°01' E 023°32'0 0.0
2018-Jun-16 17:00N 38°01' E 023°32'0 0.0
2018-Jun-16 16:29N 38°01' E 023°32'0 0.1
2018-Jun-16 15:59N 38°01' E 023°32'1 1.6
2018-Jun-16 15:30N 38°01' E 023°33'4 7.8
2018-Jun-16 15:00N 37°57' E 023°34'3 5.3
2018-Jun-16 14:30N 37°55' E 023°35'3 5.7
2018-Jun-16 14:00N 37°53' E 023°38'5 9.5
2018-Jun-16 13:30N 37°48' E 023°41'5 9.4
2018-Jun-16 12:59N 37°44' E 023°43'5 9.4
2018-Jun-16 12:30N 37°40' E 023°46'46 1.0
2018-Jun-14 12:28N 37°03' E 024°21'52 8.3
2018-Jun-14 06:11N 37°44' E 023°40'2 9.3
2018-Jun-14 06:00N 37°45' E 023°39'4 9.0
2018-Jun-14 05:30N 37°49' E 023°37'5 8.6
2018-Jun-14 04:59N 37°50' E 023°31'4 8.9
2018-Jun-14 04:30N 37°50' E 023°26'5 9.2
2018-Jun-14 04:00N 37°51' E 023°20'5 9.4
2018-Jun-14 03:30N 37°52' E 023°14'5 9.4
2018-Jun-14 03:00N 37°53' E 023°08'3 5.8
2018-Jun-14 02:30N 37°55' E 023°05'0 0.2
2018-Jun-14 01:59N 37°55' E 023°05'0 0.0
2018-Jun-14 01:29N 37°55' E 023°05'0 0.0
2018-Jun-14 00:59N 37°55' E 023°05'0 0.0
2018-Jun-14 00:29N 37°55' E 023°05'0 0.0
2018-Jun-13 23:59N 37°55' E 023°05'0 0.0
2018-Jun-13 23:29N 37°55' E 023°05'0 0.0
2018-Jun-13 22:59N 37°55' E 023°05'0 0.0
2018-Jun-13 22:29N 37°55' E 023°05'0 0.0
2018-Jun-13 21:59N 37°55' E 023°05'0 0.0
2018-Jun-13 21:29N 37°55' E 023°05'0 0.0
2018-Jun-13 20:59N 37°55' E 023°05'0 0.0
2018-Jun-13 20:29N 37°55' E 023°05'0 0.0
2018-Jun-13 19:59N 37°55' E 023°05'0 0.0
2018-Jun-13 19:29N 37°55' E 023°05'0 0.0
2018-Jun-13 18:59N 37°55' E 023°05'0 0.0
2018-Jun-13 18:29N 37°55' E 023°05'0 0.0
2018-Jun-13 17:59N 37°55' E 023°05'0 0.0
2018-Jun-13 17:29N 37°55' E 023°05'0 0.0
2018-Jun-13 16:59N 37°55' E 023°05'0 0.0
2018-Jun-13 16:29N 37°55' E 023°05'0 0.0
2018-Jun-13 15:59N 37°55' E 023°05'0 0.0
2018-Jun-13 15:29N 37°55' E 023°05'0 0.0
2018-Jun-13 14:59N 37°55' E 023°05'0 0.0
2018-Jun-13 14:29N 37°55' E 023°05'0 0.0
2018-Jun-13 13:59N 37°55' E 023°05'0 0.0
2018-Jun-13 13:29N 37°55' E 023°05'0 0.0
2018-Jun-13 12:59N 37°55' E 023°05'0 0.0
2018-Jun-13 12:29N 37°55' E 023°05'0 0.0
2018-Jun-13 11:59N 37°55' E 023°05'0 0.0
2018-Jun-13 11:29N 37°55' E 023°05'0 0.0
2018-Jun-13 10:59N 37°55' E 023°05'0 0.0
2018-Jun-13 10:29N 37°55' E 023°05'0 0.0
2018-Jun-13 09:59N 37°55' E 023°05'0 0.0
2018-Jun-13 09:29N 37°55' E 023°05'0 0.0
2018-Jun-13 08:59N 37°55' E 023°05'0 0.0
2018-Jun-13 08:29N 37°55' E 023°05'0 0.0
2018-Jun-13 07:59N 37°55' E 023°05'0 0.0
2018-Jun-13 07:29N 37°55' E 023°05'0 0.0
2018-Jun-13 06:59N 37°55' E 023°05'0 0.0
2018-Jun-13 06:29N 37°55' E 023°05'0 0.0
2018-Jun-13 05:59N 37°55' E 023°05'0 0.0
2018-Jun-13 05:29N 37°55' E 023°05'0 0.0
2018-Jun-13 04:59N 37°55' E 023°05'0 0.0
2018-Jun-13 04:29N 37°55' E 023°05'0 0.0
2018-Jun-13 03:59N 37°55' E 023°05'0 0.0
2018-Jun-13 03:29N 37°55' E 023°05'0 0.0
2018-Jun-13 02:59N 37°55' E 023°05'0 0.0
2018-Jun-13 02:29N 37°55' E 023°05'0 0.0
2018-Jun-13 01:59N 37°55' E 023°05'0 0.0
2018-Jun-13 01:29N 37°55' E 023°05'0 0.0
2018-Jun-13 00:59N 37°55' E 023°05'0 0.0
2018-Jun-13 00:29N 37°55' E 023°05'0 0.0
2018-Jun-12 23:59N 37°55' E 023°05'0 0.3
2018-Jun-12 23:30N 37°55' E 023°05'1 1.8
2018-Jun-12 23:00N 37°55' E 023°07'0 0.0
2018-Jun-12 22:30N 37°55' E 023°07'0 0.0
2018-Jun-12 22:00N 37°55' E 023°07'0 0.0
2018-Jun-12 21:30N 37°55' E 023°07'0 0.3
2018-Jun-12 21:00N 37°55' E 023°07'3 5.5
2018-Jun-12 20:30N 37°53' E 023°10'4 8.8
2018-Jun-12 20:00N 37°53' E 023°15'5 9.2
2018-Jun-12 19:30N 37°51' E 023°21'4 8.8
2018-Jun-12 19:00N 37°50' E 023°26'4 8.4
2018-Jun-12 18:30N 37°50' E 023°32'4 8.3
2018-Jun-12 18:00N 37°54' E 023°35'3 6.6
2018-Jun-12 17:30N 37°57' E 023°36'3 7.0
2018-Jun-12 17:00N 37°60' E 023°33'2 3.4
2018-Jun-12 16:30N 38°01' E 023°32'0 0.0
2018-Jun-12 16:00N 38°01' E 023°32'0 0.0
2018-Jun-12 15:30N 38°01' E 023°32'0 0.0
2018-Jun-12 15:00N 38°01' E 023°32'0 0.0
2018-Jun-12 14:30N 38°01' E 023°32'0 0.0
2018-Jun-12 14:00N 38°01' E 023°32'0 0.0
2018-Jun-12 13:30N 38°01' E 023°32'0 0.0
2018-Jun-12 13:00N 38°01' E 023°32'0 0.2
2018-Jun-12 12:30N 38°01' E 023°32'0 0.1
2018-Jun-12 12:00N 38°01' E 023°32'0 0.1
2018-Jun-12 11:30N 38°01' E 023°32'0 0.0
2018-Jun-12 11:00N 38°01' E 023°32'0 0.0
2018-Jun-12 10:30N 38°01' E 023°32'0 0.0
2018-Jun-12 10:00N 38°01' E 023°32'0 0.0
2018-Jun-12 09:30N 38°01' E 023°32'0 0.0
2018-Jun-12 09:00N 38°01' E 023°32'0 0.0
2018-Jun-12 08:30N 38°01' E 023°32'0 0.0
2018-Jun-12 08:00N 38°01' E 023°32'0 0.0
2018-Jun-12 07:27N 38°01' E 023°32'0 0.0
2018-Jun-12 07:00N 38°01' E 023°32'0 0.0
2018-Jun-12 06:30N 38°01' E 023°32'0 0.0
2018-Jun-12 06:00N 38°01' E 023°32'0 0.0
2018-Jun-12 05:30N 38°01' E 023°32'0 0.0
2018-Jun-12 05:00N 38°01' E 023°32'0 0.0
2018-Jun-12 04:30N 38°01' E 023°32'0 0.1
2018-Jun-12 04:00N 38°01' E 023°32'0 0.0
2018-Jun-12 03:30N 38°01' E 023°32'0 0.0
2018-Jun-12 03:00N 38°01' E 023°32'0 0.0
2018-Jun-12 02:30N 38°01' E 023°32'0 0.0
2018-Jun-12 02:00N 38°01' E 023°32'0 0.0
2018-Jun-12 01:30N 38°01' E 023°32'0 0.0
2018-Jun-12 01:00N 38°01' E 023°32'0 0.0
2018-Jun-12 00:30N 38°01' E 023°32'0 0.0
2018-Jun-12 00:00N 38°01' E 023°32'0 0.0
2018-Jun-11 23:30N 38°01' E 023°32'0 0.0
2018-Jun-11 23:00N 38°01' E 023°32'0 0.0
2018-Jun-11 22:30N 38°01' E 023°32'0 0.0
2018-Jun-11 22:00N 38°01' E 023°32'0 0.0
2018-Jun-11 21:30N 38°01' E 023°32'0 0.0
2018-Jun-11 21:00N 38°01' E 023°32'0 0.0
2018-Jun-11 20:30N 38°01' E 023°32'0 0.0
2018-Jun-11 20:00N 38°01' E 023°32'0 0.0
2018-Jun-11 19:30N 38°01' E 023°32'0 0.0
2018-Jun-11 19:00N 38°01' E 023°32'0 0.0
2018-Jun-11 18:30N 38°01' E 023°32'0 0.0
2018-Jun-11 18:00N 38°01' E 023°32'0 0.1
2018-Jun-11 17:30N 38°01' E 023°32'0 0.0
2018-Jun-11 17:00N 38°01' E 023°32'0 0.0
2018-Jun-11 16:30N 38°01' E 023°32'0 0.1
2018-Jun-11 16:00N 38°01' E 023°32'0 0.0
2018-Jun-11 15:30N 38°01' E 023°32'0 0.0
2018-Jun-11 15:00N 38°01' E 023°32'0 0.0
2018-Jun-11 14:30N 38°01' E 023°32'0 0.0
2018-Jun-11 14:00N 38°01' E 023°32'0 0.0
2018-Jun-11 13:30N 38°01' E 023°32'0 0.0
2018-Jun-11 13:00N 38°01' E 023°32'0 0.0
2018-Jun-11 12:27N 38°01' E 023°32'0 0.1
2018-Jun-11 12:00N 38°01' E 023°32'0 0.1
2018-Jun-11 11:30N 38°01' E 023°32'0 0.8
2018-Jun-11 10:59N 38°01' E 023°32'1 2.0
2018-Jun-11 10:31N 38°02' E 023°32'3 5.5
2018-Jun-11 10:00N 37°59' E 023°33'3 6.7
2018-Jun-11 09:30N 37°57' E 023°36'3 6.6
2018-Jun-11 09:00N 37°54' E 023°38'4 8.1
2018-Jun-11 08:30N 37°50' E 023°40'4 8.0
2018-Jun-11 08:00N 37°46' E 023°42'4 8.2
2018-Jun-11 07:30N 37°43' E 023°44'  

Dump ship's entire track history